sensor_id;sensor_type;location;lat;lon;timestamp;P1;durP1;ratioP1;P2;durP2;ratioP2
6077;SDS011;3067;49.470;10.394;2024-02-26T00:01:52;8.50;;;5.47;;
6077;SDS011;3067;49.470;10.394;2024-02-26T00:04:19;6.40;;;4.73;;
6077;SDS011;3067;49.470;10.394;2024-02-26T00:06:47;8.73;;;5.23;;
6077;SDS011;3067;49.470;10.394;2024-02-26T00:09:15;5.10;;;4.60;;
6077;SDS011;3067;49.470;10.394;2024-02-26T00:11:42;10.67;;;5.73;;
6077;SDS011;3067;49.470;10.394;2024-02-26T00:14:09;7.00;;;5.30;;
6077;SDS011;3067;49.470;10.394;2024-02-26T00:16:37;6.50;;;4.80;;
6077;SDS011;3067;49.470;10.394;2024-02-26T00:19:08;5.43;;;4.90;;
6077;SDS011;3067;49.470;10.394;2024-02-26T00:21:35;6.23;;;5.07;;
6077;SDS011;3067;49.470;10.394;2024-02-26T00:24:02;8.03;;;5.20;;
6077;SDS011;3067;49.470;10.394;2024-02-26T00:26:29;6.63;;;5.07;;
6077;SDS011;3067;49.470;10.394;2024-02-26T00:28:56;7.80;;;5.60;;
6077;SDS011;3067;49.470;10.394;2024-02-26T00:31:23;8.23;;;5.30;;
6077;SDS011;3067;49.470;10.394;2024-02-26T00:33:50;7.30;;;5.10;;
6077;SDS011;3067;49.470;10.394;2024-02-26T00:36:19;7.43;;;5.83;;
6077;SDS011;3067;49.470;10.394;2024-02-26T00:38:46;5.33;;;4.77;;
6077;SDS011;3067;49.470;10.394;2024-02-26T00:41:16;6.43;;;5.50;;
6077;SDS011;3067;49.470;10.394;2024-02-26T00:43:44;6.03;;;4.70;;
6077;SDS011;3067;49.470;10.394;2024-02-26T00:46:11;5.57;;;5.03;;
6077;SDS011;3067;49.470;10.394;2024-02-26T00:48:38;6.70;;;5.07;;
6077;SDS011;3067;49.470;10.394;2024-02-26T00:51:05;6.43;;;5.53;;
6077;SDS011;3067;49.470;10.394;2024-02-26T00:53:34;6.90;;;5.20;;
6077;SDS011;3067;49.470;10.394;2024-02-26T00:56:01;5.43;;;4.93;;
6077;SDS011;3067;49.470;10.394;2024-02-26T00:58:28;9.27;;;5.50;;
6077;SDS011;3067;49.470;10.394;2024-02-26T01:00:55;6.30;;;5.53;;
6077;SDS011;3067;49.470;10.394;2024-02-26T01:03:22;8.63;;;5.20;;
6077;SDS011;3067;49.470;10.394;2024-02-26T01:05:49;6.57;;;5.27;;
6077;SDS011;3067;49.470;10.394;2024-02-26T01:08:16;7.70;;;5.70;;
6077;SDS011;3067;49.470;10.394;2024-02-26T01:10:45;6.20;;;5.27;;
6077;SDS011;3067;49.470;10.394;2024-02-26T01:13:12;5.40;;;4.87;;
6077;SDS011;3067;49.470;10.394;2024-02-26T01:15:39;8.13;;;5.20;;
6077;SDS011;3067;49.470;10.394;2024-02-26T01:18:06;5.13;;;4.63;;
6077;SDS011;3067;49.470;10.394;2024-02-26T01:20:33;5.97;;;5.10;;
6077;SDS011;3067;49.470;10.394;2024-02-26T01:23:00;6.63;;;5.20;;
6077;SDS011;3067;49.470;10.394;2024-02-26T01:25:27;6.37;;;5.20;;
6077;SDS011;3067;49.470;10.394;2024-02-26T01:27:56;6.83;;;5.30;;
6077;SDS011;3067;49.470;10.394;2024-02-26T01:30:23;7.23;;;4.90;;
6077;SDS011;3067;49.470;10.394;2024-02-26T01:32:50;6.27;;;5.30;;
6077;SDS011;3067;49.470;10.394;2024-02-26T01:35:17;7.17;;;5.57;;
6077;SDS011;3067;49.470;10.394;2024-02-26T01:37:45;6.50;;;5.40;;
6077;SDS011;3067;49.470;10.394;2024-02-26T01:40:12;8.23;;;5.50;;
6077;SDS011;3067;49.470;10.394;2024-02-26T01:42:43;7.93;;;5.43;;
6077;SDS011;3067;49.470;10.394;2024-02-26T01:45:12;7.37;;;5.40;;
6077;SDS011;3067;49.470;10.394;2024-02-26T01:47:46;7.20;;;5.20;;
6077;SDS011;3067;49.470;10.394;2024-02-26T01:50:16;7.40;;;4.73;;
6077;SDS011;3067;49.470;10.394;2024-02-26T01:52:43;8.73;;;5.13;;
6077;SDS011;3067;49.470;10.394;2024-02-26T01:55:11;6.23;;;4.50;;
6077;SDS011;3067;49.470;10.394;2024-02-26T01:57:40;5.67;;;5.10;;
6077;SDS011;3067;49.470;10.394;2024-02-26T02:00:09;8.10;;;5.07;;
6077;SDS011;3067;49.470;10.394;2024-02-26T02:02:38;5.70;;;5.10;;
6077;SDS011;3067;49.470;10.394;2024-02-26T02:05:07;10.70;;;5.20;;
6077;SDS011;3067;49.470;10.394;2024-02-26T02:07:36;6.40;;;5.03;;
6077;SDS011;3067;49.470;10.394;2024-02-26T02:10:03;6.00;;;5.40;;
6077;SDS011;3067;49.470;10.394;2024-02-26T02:12:31;6.03;;;5.13;;
6077;SDS011;3067;49.470;10.394;2024-02-26T02:14:59;5.80;;;4.90;;
6077;SDS011;3067;49.470;10.394;2024-02-26T02:17:28;7.97;;;5.17;;
6077;SDS011;3067;49.470;10.394;2024-02-26T02:19:55;11.70;;;5.10;;
6077;SDS011;3067;49.470;10.394;2024-02-26T02:22:24;7.43;;;5.43;;
6077;SDS011;3067;49.470;10.394;2024-02-26T02:24:51;6.90;;;5.10;;
6077;SDS011;3067;49.470;10.394;2024-02-26T02:27:19;6.13;;;5.00;;
6077;SDS011;3067;49.470;10.394;2024-02-26T02:29:46;5.90;;;5.03;;
6077;SDS011;3067;49.470;10.394;2024-02-26T02:32:15;5.13;;;4.70;;
6077;SDS011;3067;49.470;10.394;2024-02-26T02:34:43;6.53;;;5.20;;
6077;SDS011;3067;49.470;10.394;2024-02-26T02:37:11;7.50;;;5.03;;
6077;SDS011;3067;49.470;10.394;2024-02-26T02:39:39;5.90;;;4.90;;
6077;SDS011;3067;49.470;10.394;2024-02-26T02:42:08;8.20;;;5.10;;
6077;SDS011;3067;49.470;10.394;2024-02-26T02:44:35;5.70;;;5.10;;
6077;SDS011;3067;49.470;10.394;2024-02-26T02:47:03;8.17;;;5.27;;
6077;SDS011;3067;49.470;10.394;2024-02-26T02:49:30;5.23;;;4.50;;
6077;SDS011;3067;49.470;10.394;2024-02-26T02:51:57;5.80;;;4.43;;
6077;SDS011;3067;49.470;10.394;2024-02-26T02:54:24;5.60;;;5.00;;
6077;SDS011;3067;49.470;10.394;2024-02-26T02:56:52;5.53;;;5.03;;
6077;SDS011;3067;49.470;10.394;2024-02-26T02:59:19;6.70;;;5.07;;
6077;SDS011;3067;49.470;10.394;2024-02-26T03:01:47;5.80;;;4.83;;
6077;SDS011;3067;49.470;10.394;2024-02-26T03:04:14;8.80;;;5.47;;
6077;SDS011;3067;49.470;10.394;2024-02-26T03:06:41;6.03;;;4.70;;
6077;SDS011;3067;49.470;10.394;2024-02-26T03:09:08;5.50;;;4.93;;
6077;SDS011;3067;49.470;10.394;2024-02-26T03:11:35;5.67;;;5.00;;
6077;SDS011;3067;49.470;10.394;2024-02-26T03:14:04;5.20;;;4.67;;
6077;SDS011;3067;49.470;10.394;2024-02-26T03:16:31;6.93;;;4.93;;
6077;SDS011;3067;49.470;10.394;2024-02-26T03:18:58;5.33;;;4.83;;
6077;SDS011;3067;49.470;10.394;2024-02-26T03:21:26;5.83;;;4.87;;
6077;SDS011;3067;49.470;10.394;2024-02-26T03:23:54;10.30;;;5.23;;
6077;SDS011;3067;49.470;10.394;2024-02-26T03:26:22;7.40;;;5.20;;
6077;SDS011;3067;49.470;10.394;2024-02-26T03:28:49;6.50;;;5.70;;
6077;SDS011;3067;49.470;10.394;2024-02-26T03:31:18;7.63;;;5.73;;
6077;SDS011;3067;49.470;10.394;2024-02-26T03:33:46;7.13;;;5.70;;
6077;SDS011;3067;49.470;10.394;2024-02-26T03:36:13;8.50;;;5.67;;
6077;SDS011;3067;49.470;10.394;2024-02-26T03:38:41;6.63;;;5.20;;
6077;SDS011;3067;49.470;10.394;2024-02-26T03:41:08;12.53;;;5.77;;
6077;SDS011;3067;49.470;10.394;2024-02-26T03:43:35;10.17;;;5.57;;
6077;SDS011;3067;49.470;10.394;2024-02-26T03:46:03;8.90;;;6.27;;
6077;SDS011;3067;49.470;10.394;2024-02-26T03:48:31;8.83;;;5.73;;
6077;SDS011;3067;49.470;10.394;2024-02-26T03:50:58;8.80;;;6.00;;
6077;SDS011;3067;49.470;10.394;2024-02-26T03:53:25;7.60;;;5.70;;
6077;SDS011;3067;49.470;10.394;2024-02-26T03:55:53;10.87;;;7.20;;
6077;SDS011;3067;49.470;10.394;2024-02-26T03:58:20;8.47;;;6.40;;
6077;SDS011;3067;49.470;10.394;2024-02-26T04:00:47;9.20;;;6.03;;
6077;SDS011;3067;49.470;10.394;2024-02-26T04:03:14;7.97;;;6.40;;
6077;SDS011;3067;49.470;10.394;2024-02-26T04:05:43;9.97;;;6.63;;
6077;SDS011;3067;49.470;10.394;2024-02-26T04:08:10;10.03;;;6.93;;
6077;SDS011;3067;49.470;10.394;2024-02-26T04:10:37;13.40;;;6.67;;
6077;SDS011;3067;49.470;10.394;2024-02-26T04:13:04;9.30;;;6.90;;
6077;SDS011;3067;49.470;10.394;2024-02-26T04:15:31;9.73;;;6.53;;
6077;SDS011;3067;49.470;10.394;2024-02-26T04:17:58;11.73;;;6.80;;
6077;SDS011;3067;49.470;10.394;2024-02-26T04:20:25;8.30;;;6.40;;
6077;SDS011;3067;49.470;10.394;2024-02-26T04:22:54;11.60;;;6.90;;
6077;SDS011;3067;49.470;10.394;2024-02-26T04:25:21;12.53;;;7.50;;
6077;SDS011;3067;49.470;10.394;2024-02-26T04:27:48;13.10;;;7.00;;
6077;SDS011;3067;49.470;10.394;2024-02-26T04:30:15;13.23;;;7.73;;
6077;SDS011;3067;49.470;10.394;2024-02-26T04:32:43;13.13;;;6.80;;
6077;SDS011;3067;49.470;10.394;2024-02-26T04:35:10;15.10;;;7.10;;
6077;SDS011;3067;49.470;10.394;2024-02-26T04:37:37;12.20;;;7.33;;
6077;SDS011;3067;49.470;10.394;2024-02-26T04:40:07;10.07;;;6.90;;
6077;SDS011;3067;49.470;10.394;2024-02-26T04:42:34;12.47;;;7.47;;
6077;SDS011;3067;49.470;10.394;2024-02-26T04:45:01;11.43;;;6.70;;
6077;SDS011;3067;49.470;10.394;2024-02-26T04:47:29;12.93;;;7.43;;
6077;SDS011;3067;49.470;10.394;2024-02-26T04:49:56;16.93;;;7.60;;
6077;SDS011;3067;49.470;10.394;2024-02-26T04:52:23;13.80;;;7.93;;
6077;SDS011;3067;49.470;10.394;2024-02-26T04:54:50;16.30;;;8.43;;
6077;SDS011;3067;49.470;10.394;2024-02-26T04:57:19;15.80;;;8.00;;
6077;SDS011;3067;49.470;10.394;2024-02-26T04:59:46;12.40;;;8.17;;
6077;SDS011;3067;49.470;10.394;2024-02-26T05:02:13;16.97;;;8.40;;
6077;SDS011;3067;49.470;10.394;2024-02-26T05:04:40;13.80;;;8.20;;
6077;SDS011;3067;49.470;10.394;2024-02-26T05:07:07;13.50;;;8.63;;
6077;SDS011;3067;49.470;10.394;2024-02-26T05:09:35;12.83;;;8.43;;
6077;SDS011;3067;49.470;10.394;2024-02-26T05:12:02;15.10;;;8.63;;
6077;SDS011;3067;49.470;10.394;2024-02-26T05:14:31;14.57;;;8.17;;
6077;SDS011;3067;49.470;10.394;2024-02-26T05:16:58;20.93;;;7.90;;
6077;SDS011;3067;49.470;10.394;2024-02-26T05:19:25;12.87;;;8.83;;
6077;SDS011;3067;49.470;10.394;2024-02-26T05:21:52;14.37;;;8.53;;
6077;SDS011;3067;49.470;10.394;2024-02-26T05:24:20;15.70;;;8.23;;
6077;SDS011;3067;49.470;10.394;2024-02-26T05:26:47;13.23;;;8.93;;
6077;SDS011;3067;49.470;10.394;2024-02-26T05:29:14;14.70;;;8.30;;
6077;SDS011;3067;49.470;10.394;2024-02-26T05:31:43;16.10;;;8.60;;
6077;SDS011;3067;49.470;10.394;2024-02-26T05:34:10;14.73;;;8.13;;
6077;SDS011;3067;49.470;10.394;2024-02-26T05:36:37;14.93;;;9.30;;
6077;SDS011;3067;49.470;10.394;2024-02-26T05:39:04;14.70;;;9.30;;
6077;SDS011;3067;49.470;10.394;2024-02-26T05:41:32;12.87;;;8.60;;
6077;SDS011;3067;49.470;10.394;2024-02-26T05:43:59;19.37;;;10.47;;
6077;SDS011;3067;49.470;10.394;2024-02-26T05:46:26;15.03;;;8.30;;
6077;SDS011;3067;49.470;10.394;2024-02-26T05:48:54;17.50;;;9.30;;
6077;SDS011;3067;49.470;10.394;2024-02-26T05:51:21;18.60;;;9.40;;
6077;SDS011;3067;49.470;10.394;2024-02-26T05:53:49;14.27;;;8.97;;
6077;SDS011;3067;49.470;10.394;2024-02-26T05:56:19;13.03;;;7.90;;
6077;SDS011;3067;49.470;10.394;2024-02-26T05:58:46;13.63;;;8.40;;
6077;SDS011;3067;49.470;10.394;2024-02-26T06:01:15;13.67;;;8.73;;
6077;SDS011;3067;49.470;10.394;2024-02-26T06:03:42;13.20;;;7.97;;
6077;SDS011;3067;49.470;10.394;2024-02-26T06:06:11;13.67;;;8.40;;
6077;SDS011;3067;49.470;10.394;2024-02-26T06:08:39;15.30;;;8.67;;
6077;SDS011;3067;49.470;10.394;2024-02-26T06:11:06;16.00;;;9.23;;
6077;SDS011;3067;49.470;10.394;2024-02-26T06:13:33;13.07;;;8.70;;
6077;SDS011;3067;49.470;10.394;2024-02-26T06:16:01;14.60;;;9.23;;
6077;SDS011;3067;49.470;10.394;2024-02-26T06:18:28;15.63;;;9.47;;
6077;SDS011;3067;49.470;10.394;2024-02-26T06:20:55;18.00;;;9.00;;
6077;SDS011;3067;49.470;10.394;2024-02-26T06:23:24;17.93;;;10.60;;
6077;SDS011;3067;49.470;10.394;2024-02-26T06:25:51;13.63;;;9.50;;
6077;SDS011;3067;49.470;10.394;2024-02-26T06:28:18;15.97;;;9.27;;
6077;SDS011;3067;49.470;10.394;2024-02-26T06:30:45;15.97;;;9.13;;
6077;SDS011;3067;49.470;10.394;2024-02-26T06:33:12;15.80;;;9.50;;
6077;SDS011;3067;49.470;10.394;2024-02-26T06:35:39;15.07;;;9.13;;
6077;SDS011;3067;49.470;10.394;2024-02-26T06:38:06;19.03;;;9.80;;
6077;SDS011;3067;49.470;10.394;2024-02-26T06:40:36;19.70;;;10.33;;
6077;SDS011;3067;49.470;10.394;2024-02-26T06:43:03;14.73;;;9.47;;
6077;SDS011;3067;49.470;10.394;2024-02-26T06:45:31;20.37;;;10.13;;
6077;SDS011;3067;49.470;10.394;2024-02-26T06:47:58;15.73;;;9.77;;
6077;SDS011;3067;49.470;10.394;2024-02-26T06:50:25;22.03;;;10.70;;
6077;SDS011;3067;49.470;10.394;2024-02-26T06:52:52;18.97;;;10.63;;
6077;SDS011;3067;49.470;10.394;2024-02-26T06:55:19;17.90;;;10.10;;
6077;SDS011;3067;49.470;10.394;2024-02-26T06:57:48;16.20;;;9.70;;
6077;SDS011;3067;49.470;10.394;2024-02-26T07:00:15;17.30;;;9.80;;
6077;SDS011;3067;49.470;10.394;2024-02-26T07:02:43;18.07;;;10.10;;
6077;SDS011;3067;49.470;10.394;2024-02-26T07:05:10;18.30;;;9.90;;
6077;SDS011;3067;49.470;10.394;2024-02-26T07:07:37;19.70;;;10.90;;
6077;SDS011;3067;49.470;10.394;2024-02-26T07:10:05;19.57;;;10.73;;
6077;SDS011;3067;49.470;10.394;2024-02-26T07:12:33;17.30;;;10.30;;
6077;SDS011;3067;49.470;10.394;2024-02-26T07:15:01;19.23;;;10.40;;
6077;SDS011;3067;49.470;10.394;2024-02-26T07:17:28;19.77;;;10.50;;
6077;SDS011;3067;49.470;10.394;2024-02-26T07:19:55;15.00;;;9.60;;
6077;SDS011;3067;49.470;10.394;2024-02-26T07:22:23;18.17;;;11.03;;
6077;SDS011;3067;49.470;10.394;2024-02-26T07:24:50;18.50;;;10.60;;
6077;SDS011;3067;49.470;10.394;2024-02-26T07:27:17;19.87;;;10.97;;
6077;SDS011;3067;49.470;10.394;2024-02-26T07:29:46;19.10;;;10.80;;
6077;SDS011;3067;49.470;10.394;2024-02-26T07:32:14;15.70;;;10.27;;
6077;SDS011;3067;49.470;10.394;2024-02-26T07:34:42;18.57;;;10.87;;
6077;SDS011;3067;49.470;10.394;2024-02-26T07:37:09;18.33;;;10.60;;
6077;SDS011;3067;49.470;10.394;2024-02-26T07:39:37;18.87;;;11.10;;
6077;SDS011;3067;49.470;10.394;2024-02-26T07:42:04;17.27;;;10.80;;
6077;SDS011;3067;49.470;10.394;2024-02-26T07:44:31;21.20;;;11.23;;
6077;SDS011;3067;49.470;10.394;2024-02-26T07:46:59;19.60;;;11.10;;
6077;SDS011;3067;49.470;10.394;2024-02-26T07:49:27;23.47;;;12.00;;
6077;SDS011;3067;49.470;10.394;2024-02-26T07:51:54;22.10;;;11.20;;
6077;SDS011;3067;49.470;10.394;2024-02-26T07:54:23;19.30;;;11.50;;
6077;SDS011;3067;49.470;10.394;2024-02-26T07:56:50;19.60;;;11.17;;
6077;SDS011;3067;49.470;10.394;2024-02-26T07:59:17;19.90;;;11.63;;
6077;SDS011;3067;49.470;10.394;2024-02-26T08:01:48;18.80;;;10.80;;
6077;SDS011;3067;49.470;10.394;2024-02-26T08:04:16;19.90;;;11.20;;
6077;SDS011;3067;49.470;10.394;2024-02-26T08:06:44;19.87;;;12.10;;
6077;SDS011;3067;49.470;10.394;2024-02-26T08:09:11;20.53;;;11.53;;
6077;SDS011;3067;49.470;10.394;2024-02-26T08:11:39;19.67;;;12.27;;
6077;SDS011;3067;49.470;10.394;2024-02-26T08:14:06;18.53;;;11.43;;
6077;SDS011;3067;49.470;10.394;2024-02-26T08:16:33;19.83;;;11.80;;
6077;SDS011;3067;49.470;10.394;2024-02-26T08:19:00;18.83;;;11.40;;
6077;SDS011;3067;49.470;10.394;2024-02-26T08:21:27;18.10;;;11.13;;
6077;SDS011;3067;49.470;10.394;2024-02-26T08:23:55;19.50;;;11.00;;
6077;SDS011;3067;49.470;10.394;2024-02-26T08:26:22;17.50;;;10.90;;
6077;SDS011;3067;49.470;10.394;2024-02-26T08:28:49;18.03;;;10.77;;
6077;SDS011;3067;49.470;10.394;2024-02-26T08:31:16;18.73;;;10.97;;
6077;SDS011;3067;49.470;10.394;2024-02-26T08:33:43;16.87;;;10.27;;
6077;SDS011;3067;49.470;10.394;2024-02-26T08:36:11;21.03;;;11.63;;
6077;SDS011;3067;49.470;10.394;2024-02-26T08:38:38;17.80;;;11.17;;
6077;SDS011;3067;49.470;10.394;2024-02-26T08:41:07;18.43;;;11.60;;
6077;SDS011;3067;49.470;10.394;2024-02-26T08:43:34;21.17;;;11.17;;
6077;SDS011;3067;49.470;10.394;2024-02-26T08:46:01;20.53;;;10.10;;
6077;SDS011;3067;49.470;10.394;2024-02-26T08:48:28;17.50;;;10.60;;
6077;SDS011;3067;49.470;10.394;2024-02-26T08:50:55;20.73;;;9.73;;
6077;SDS011;3067;49.470;10.394;2024-02-26T08:53:22;17.57;;;10.43;;
6077;SDS011;3067;49.470;10.394;2024-02-26T08:55:52;15.97;;;10.37;;
6077;SDS011;3067;49.470;10.394;2024-02-26T08:58:20;16.07;;;10.20;;
6077;SDS011;3067;49.470;10.394;2024-02-26T09:00:47;14.63;;;9.20;;
6077;SDS011;3067;49.470;10.394;2024-02-26T09:03:14;15.27;;;9.37;;
6077;SDS011;3067;49.470;10.394;2024-02-26T09:05:41;19.43;;;9.93;;
6077;SDS011;3067;49.470;10.394;2024-02-26T09:08:09;14.27;;;9.93;;
6077;SDS011;3067;49.470;10.394;2024-02-26T09:10:36;15.57;;;9.63;;
6077;SDS011;3067;49.470;10.394;2024-02-26T09:13:04;16.77;;;10.17;;
6077;SDS011;3067;49.470;10.394;2024-02-26T09:15:32;15.97;;;10.13;;
6077;SDS011;3067;49.470;10.394;2024-02-26T09:17:59;14.47;;;9.60;;
6077;SDS011;3067;49.470;10.394;2024-02-26T09:20:28;13.33;;;9.40;;
6077;SDS011;3067;49.470;10.394;2024-02-26T09:22:55;13.57;;;9.30;;
6077;SDS011;3067;49.470;10.394;2024-02-26T09:25:22;12.17;;;9.27;;
6077;SDS011;3067;49.470;10.394;2024-02-26T09:27:49;14.27;;;9.33;;
6077;SDS011;3067;49.470;10.394;2024-02-26T09:30:16;14.87;;;10.70;;
6077;SDS011;3067;49.470;10.394;2024-02-26T09:32:47;15.13;;;10.40;;
6077;SDS011;3067;49.470;10.394;2024-02-26T09:35:14;13.53;;;9.73;;
6077;SDS011;3067;49.470;10.394;2024-02-26T09:37:41;21.87;;;10.67;;
6077;SDS011;3067;49.470;10.394;2024-02-26T09:40:09;17.20;;;10.40;;
6077;SDS011;3067;49.470;10.394;2024-02-26T09:42:39;16.87;;;10.80;;
6077;SDS011;3067;49.470;10.394;2024-02-26T09:45:10;16.80;;;10.33;;
6077;SDS011;3067;49.470;10.394;2024-02-26T09:47:41;17.67;;;11.07;;
6077;SDS011;3067;49.470;10.394;2024-02-26T09:50:10;15.57;;;10.73;;
6077;SDS011;3067;49.470;10.394;2024-02-26T09:52:40;16.67;;;10.80;;
6077;SDS011;3067;49.470;10.394;2024-02-26T09:55:08;18.77;;;9.47;;
6077;SDS011;3067;49.470;10.394;2024-02-26T09:57:36;15.50;;;10.20;;
6077;SDS011;3067;49.470;10.394;2024-02-26T10:00:04;14.00;;;9.27;;
6077;SDS011;3067;49.470;10.394;2024-02-26T10:02:34;14.10;;;8.50;;
6077;SDS011;3067;49.470;10.394;2024-02-26T10:05:04;12.50;;;8.80;;
6077;SDS011;3067;49.470;10.394;2024-02-26T10:07:37;11.73;;;8.37;;
6077;SDS011;3067;49.470;10.394;2024-02-26T10:10:04;12.70;;;8.00;;
6077;SDS011;3067;49.470;10.394;2024-02-26T10:12:32;18.30;;;9.17;;
6077;SDS011;3067;49.470;10.394;2024-02-26T10:14:59;14.00;;;9.20;;
6077;SDS011;3067;49.470;10.394;2024-02-26T10:17:26;14.73;;;9.30;;
6077;SDS011;3067;49.470;10.394;2024-02-26T10:19:54;13.40;;;8.87;;
6077;SDS011;3067;49.470;10.394;2024-02-26T10:22:21;13.73;;;9.30;;
6077;SDS011;3067;49.470;10.394;2024-02-26T10:24:50;13.70;;;9.10;;
6077;SDS011;3067;49.470;10.394;2024-02-26T10:27:17;11.50;;;8.93;;
6077;SDS011;3067;49.470;10.394;2024-02-26T10:29:45;13.80;;;9.73;;
6077;SDS011;3067;49.470;10.394;2024-02-26T10:32:12;12.43;;;9.30;;
6077;SDS011;3067;49.470;10.394;2024-02-26T10:34:39;16.03;;;9.57;;
6077;SDS011;3067;49.470;10.394;2024-02-26T10:37:07;15.27;;;9.20;;
6077;SDS011;3067;49.470;10.394;2024-02-26T10:39:36;17.83;;;9.77;;
6077;SDS011;3067;49.470;10.394;2024-02-26T10:42:05;15.20;;;8.37;;
6077;SDS011;3067;49.470;10.394;2024-02-26T10:44:40;17.43;;;8.37;;
6077;SDS011;3067;49.470;10.394;2024-02-26T10:47:08;11.83;;;8.70;;
6077;SDS011;3067;49.470;10.394;2024-02-26T10:49:35;12.70;;;8.30;;
6077;SDS011;3067;49.470;10.394;2024-02-26T10:52:03;10.77;;;8.13;;
6077;SDS011;3067;49.470;10.394;2024-02-26T10:54:32;11.70;;;7.73;;
6077;SDS011;3067;49.470;10.394;2024-02-26T10:57:01;11.47;;;8.03;;
6077;SDS011;3067;49.470;10.394;2024-02-26T10:59:31;12.70;;;7.60;;
6077;SDS011;3067;49.470;10.394;2024-02-26T11:02:01;13.00;;;7.13;;
6077;SDS011;3067;49.470;10.394;2024-02-26T11:04:29;8.43;;;7.00;;
6077;SDS011;3067;49.470;10.394;2024-02-26T11:06:57;8.10;;;6.83;;
6077;SDS011;3067;49.470;10.394;2024-02-26T11:09:26;10.70;;;7.30;;
6077;SDS011;3067;49.470;10.394;2024-02-26T11:11:54;11.17;;;7.53;;
6077;SDS011;3067;49.470;10.394;2024-02-26T11:14:24;10.80;;;7.63;;
6077;SDS011;3067;49.470;10.394;2024-02-26T11:16:52;8.70;;;7.07;;
6077;SDS011;3067;49.470;10.394;2024-02-26T11:19:20;9.80;;;6.77;;
6077;SDS011;3067;49.470;10.394;2024-02-26T11:21:48;10.00;;;7.17;;
6077;SDS011;3067;49.470;10.394;2024-02-26T11:24:15;7.23;;;6.40;;
6077;SDS011;3067;49.470;10.394;2024-02-26T11:26:45;10.20;;;7.47;;
6077;SDS011;3067;49.470;10.394;2024-02-26T11:29:16;10.20;;;7.10;;
6077;SDS011;3067;49.470;10.394;2024-02-26T11:31:48;10.30;;;7.20;;
6077;SDS011;3067;49.470;10.394;2024-02-26T11:34:16;10.27;;;7.30;;
6077;SDS011;3067;49.470;10.394;2024-02-26T11:36:43;9.07;;;6.80;;
6077;SDS011;3067;49.470;10.394;2024-02-26T11:39:11;9.13;;;6.80;;
6077;SDS011;3067;49.470;10.394;2024-02-26T11:41:41;7.83;;;6.13;;
6077;SDS011;3067;49.470;10.394;2024-02-26T11:44:09;8.87;;;5.90;;
6077;SDS011;3067;49.470;10.394;2024-02-26T11:46:38;6.70;;;5.53;;
6077;SDS011;3067;49.470;10.394;2024-02-26T11:52:00;5.80;;;5.10;;
6077;SDS011;3067;49.470;10.394;2024-02-26T11:54:38;6.43;;;5.50;;
6077;SDS011;3067;49.470;10.394;2024-02-26T11:57:25;5.97;;;5.13;;
6077;SDS011;3067;49.470;10.394;2024-02-26T11:59:54;8.40;;;4.50;;
6077;SDS011;3067;49.470;10.394;2024-02-26T12:02:37;5.57;;;5.07;;
6077;SDS011;3067;49.470;10.394;2024-02-26T12:05:12;5.10;;;4.60;;
6077;SDS011;3067;49.470;10.394;2024-02-26T12:07:42;5.10;;;4.60;;
6077;SDS011;3067;49.470;10.394;2024-02-26T12:10:15;4.67;;;4.27;;
6077;SDS011;3067;49.470;10.394;2024-02-26T12:12:52;6.27;;;4.93;;
6077;SDS011;3067;49.470;10.394;2024-02-26T12:15:22;4.70;;;4.30;;
6077;SDS011;3067;49.470;10.394;2024-02-26T12:17:51;5.33;;;4.47;;
6077;SDS011;3067;49.470;10.394;2024-02-26T12:20:20;4.93;;;4.40;;
6077;SDS011;3067;49.470;10.394;2024-02-26T12:22:49;5.50;;;4.70;;
6077;SDS011;3067;49.470;10.394;2024-02-26T12:25:17;5.83;;;4.40;;
6077;SDS011;3067;49.470;10.394;2024-02-26T12:27:47;4.70;;;4.20;;
6077;SDS011;3067;49.470;10.394;2024-02-26T12:30:14;4.67;;;4.10;;
6077;SDS011;3067;49.470;10.394;2024-02-26T12:32:42;3.83;;;3.60;;
6077;SDS011;3067;49.470;10.394;2024-02-26T12:35:09;4.20;;;3.90;;
6077;SDS011;3067;49.470;10.394;2024-02-26T12:37:41;5.03;;;4.00;;
6077;SDS011;3067;49.470;10.394;2024-02-26T12:40:08;3.60;;;3.30;;
6077;SDS011;3067;49.470;10.394;2024-02-26T12:42:36;4.20;;;3.80;;
6077;SDS011;3067;49.470;10.394;2024-02-26T12:45:06;3.83;;;3.53;;
6077;SDS011;3067;49.470;10.394;2024-02-26T12:47:35;3.20;;;3.07;;
6077;SDS011;3067;49.470;10.394;2024-02-26T12:50:03;3.73;;;3.43;;
6077;SDS011;3067;49.470;10.394;2024-02-26T12:52:32;3.60;;;3.30;;
6077;SDS011;3067;49.470;10.394;2024-02-26T12:55:01;3.40;;;3.20;;
6077;SDS011;3067;49.470;10.394;2024-02-26T12:57:29;3.43;;;3.23;;
6077;SDS011;3067;49.470;10.394;2024-02-26T12:59:57;3.10;;;2.90;;
6077;SDS011;3067;49.470;10.394;2024-02-26T13:02:25;3.20;;;3.00;;
6077;SDS011;3067;49.470;10.394;2024-02-26T13:04:53;3.47;;;3.17;;
6077;SDS011;3067;49.470;10.394;2024-02-26T13:07:21;3.50;;;3.10;;
6077;SDS011;3067;49.470;10.394;2024-02-26T13:09:49;4.40;;;4.00;;
6077;SDS011;3067;49.470;10.394;2024-02-26T13:12:19;4.10;;;3.80;;
6077;SDS011;3067;49.470;10.394;2024-02-26T13:14:46;4.43;;;4.10;;
6077;SDS011;3067;49.470;10.394;2024-02-26T13:17:13;4.43;;;4.03;;
6077;SDS011;3067;49.470;10.394;2024-02-26T13:19:48;3.97;;;3.67;;
6077;SDS011;3067;49.470;10.394;2024-02-26T13:22:16;3.70;;;2.97;;
6077;SDS011;3067;49.470;10.394;2024-02-26T13:24:53;3.47;;;3.27;;
6077;SDS011;3067;49.470;10.394;2024-02-26T13:27:22;3.83;;;3.60;;
6077;SDS011;3067;49.470;10.394;2024-02-26T13:30:01;4.17;;;3.77;;
6077;SDS011;3067;49.470;10.394;2024-02-26T13:32:31;4.37;;;3.80;;
6077;SDS011;3067;49.470;10.394;2024-02-26T13:35:06;6.83;;;4.23;;
6077;SDS011;3067;49.470;10.394;2024-02-26T13:37:33;4.40;;;4.00;;
6077;SDS011;3067;49.470;10.394;2024-02-26T13:40:01;4.67;;;4.27;;
6077;SDS011;3067;49.470;10.394;2024-02-26T13:42:32;7.53;;;4.10;;
6077;SDS011;3067;49.470;10.394;2024-02-26T13:45:00;4.80;;;4.00;;
6077;SDS011;3067;49.470;10.394;2024-02-26T13:47:27;5.17;;;3.70;;
6077;SDS011;3067;49.470;10.394;2024-02-26T13:49:54;5.20;;;3.83;;
6077;SDS011;3067;49.470;10.394;2024-02-26T13:52:22;4.50;;;4.10;;
6077;SDS011;3067;49.470;10.394;2024-02-26T13:54:49;8.43;;;4.07;;
6077;SDS011;3067;49.470;10.394;2024-02-26T13:57:16;5.10;;;3.97;;
6077;SDS011;3067;49.470;10.394;2024-02-26T13:59:45;4.30;;;3.73;;
6077;SDS011;3067;49.470;10.394;2024-02-26T14:02:12;5.50;;;3.93;;
6077;SDS011;3067;49.470;10.394;2024-02-26T14:04:40;3.87;;;3.57;;
6077;SDS011;3067;49.470;10.394;2024-02-26T14:07:07;4.13;;;3.80;;
6077;SDS011;3067;49.470;10.394;2024-02-26T14:09:34;4.40;;;3.60;;
6077;SDS011;3067;49.470;10.394;2024-02-26T14:12:02;5.70;;;3.30;;
6077;SDS011;3067;49.470;10.394;2024-02-26T14:14:29;3.53;;;3.23;;
6077;SDS011;3067;49.470;10.394;2024-02-26T14:17:02;3.07;;;2.87;;
6077;SDS011;3067;49.470;10.394;2024-02-26T14:19:31;7.60;;;3.47;;
6077;SDS011;3067;49.470;10.394;2024-02-26T14:21:58;5.70;;;3.23;;
6077;SDS011;3067;49.470;10.394;2024-02-26T14:24:26;4.03;;;3.70;;
6077;SDS011;3067;49.470;10.394;2024-02-26T14:26:53;4.93;;;3.40;;
6077;SDS011;3067;49.470;10.394;2024-02-26T14:29:20;3.90;;;3.27;;
6077;SDS011;3067;49.470;10.394;2024-02-26T14:31:47;3.17;;;2.97;;
6077;SDS011;3067;49.470;10.394;2024-02-26T14:34:15;3.37;;;3.17;;
6077;SDS011;3067;49.470;10.394;2024-02-26T14:36:44;4.13;;;2.50;;
6077;SDS011;3067;49.470;10.394;2024-02-26T14:39:11;3.33;;;2.73;;
6077;SDS011;3067;49.470;10.394;2024-02-26T14:41:39;6.87;;;3.30;;
6077;SDS011;3067;49.470;10.394;2024-02-26T14:44:06;4.00;;;2.97;;
6077;SDS011;3067;49.470;10.394;2024-02-26T14:46:33;3.63;;;2.93;;
6077;SDS011;3067;49.470;10.394;2024-02-26T14:49:00;3.57;;;3.20;;
6077;SDS011;3067;49.470;10.394;2024-02-26T14:51:28;3.27;;;3.07;;
6077;SDS011;3067;49.470;10.394;2024-02-26T14:53:55;4.00;;;3.60;;
6077;SDS011;3067;49.470;10.394;2024-02-26T14:56:24;7.13;;;3.80;;
6077;SDS011;3067;49.470;10.394;2024-02-26T14:58:51;5.83;;;3.30;;
6077;SDS011;3067;49.470;10.394;2024-02-26T15:01:18;4.63;;;3.60;;